createdAt,value
2022-07-31T00:00:11.481Z,2.75
2022-07-31T00:02:37.805Z,3.15
2022-07-31T00:05:04.465Z,2.78
2022-07-31T00:07:30.702Z,2.85
2022-07-31T00:09:56.950Z,3.00
2022-07-31T00:12:23.218Z,3.17
2022-07-31T00:14:49.541Z,3.05
2022-07-31T00:17:15.834Z,2.75
2022-07-31T00:19:42.065Z,2.97
2022-07-31T00:22:09.279Z,3.28
2022-07-31T00:24:35.586Z,2.60
2022-07-31T00:27:02.165Z,2.95
2022-07-31T00:29:28.593Z,3.10
2022-07-31T00:31:54.869Z,2.60
2022-07-31T00:34:21.103Z,2.75
2022-07-31T00:36:47.341Z,3.45
2022-07-31T00:39:13.667Z,3.67
2022-07-31T00:41:40.978Z,3.10
2022-07-31T00:44:12.197Z,2.78
2022-07-31T00:46:40.341Z,3.13
2022-07-31T00:49:10.537Z,3.10
2022-07-31T00:51:37.787Z,3.10
2022-07-31T00:54:04.182Z,2.88
2022-07-31T00:56:30.606Z,3.10
2022-07-31T00:58:56.846Z,3.33
2022-07-31T01:01:23.720Z,3.05
2022-07-31T01:03:50.246Z,3.28
2022-07-31T01:06:16.534Z,3.28
2022-07-31T01:08:42.807Z,2.90
2022-07-31T01:11:09.093Z,2.92
2022-07-31T01:13:37.470Z,3.13
2022-07-31T01:16:04.886Z,3.20
2022-07-31T01:18:32.936Z,3.58
2022-07-31T01:21:02.209Z,3.15
2022-07-31T01:23:35.932Z,3.00
2022-07-31T01:26:02.186Z,3.10
2022-07-31T01:28:40.398Z,3.45
2022-07-31T01:34:02.532Z,3.70
2022-07-31T01:36:34.575Z,3.47
2022-07-31T01:39:01.307Z,3.50
2022-07-31T01:41:30.098Z,3.35
2022-07-31T01:43:58.070Z,3.50
2022-07-31T01:46:26.306Z,3.40
2022-07-31T01:48:54.542Z,3.80
2022-07-31T01:51:21.559Z,3.53
2022-07-31T01:53:48.544Z,3.80
2022-07-31T01:56:17.150Z,3.63
2022-07-31T01:58:44.331Z,3.20
2022-07-31T02:01:12.490Z,3.65
2022-07-31T02:03:44.163Z,3.47
2022-07-31T02:06:15.864Z,3.67
2022-07-31T02:08:43.727Z,3.33
2022-07-31T02:11:10.110Z,3.35
2022-07-31T02:13:37.213Z,3.25
2022-07-31T02:16:04.890Z,3.22
2022-07-31T02:18:32.496Z,3.30
2022-07-31T02:20:58.781Z,3.20
2022-07-31T02:23:25.798Z,3.50
2022-07-31T02:25:52.152Z,3.55
2022-07-31T02:28:20.357Z,3.50
2022-07-31T02:30:47.366Z,3.55
2022-07-31T02:33:16.371Z,3.90
2022-07-31T02:35:45.338Z,3.42
2022-07-31T02:38:18.094Z,3.80
2022-07-31T02:40:50.794Z,3.90
2022-07-31T02:43:17.239Z,5.13
2022-07-31T02:45:43.796Z,4.20
2022-07-31T02:48:10.231Z,4.13
2022-07-31T02:50:37.663Z,3.88
2022-07-31T02:53:03.948Z,4.00
2022-07-31T02:55:30.587Z,4.13
2022-07-31T02:57:56.878Z,4.28
2022-07-31T03:00:23.423Z,4.40
2022-07-31T03:02:50.267Z,4.35
2022-07-31T03:05:16.740Z,4.13
2022-07-31T03:07:43.766Z,3.58
2022-07-31T03:10:13.296Z,3.80
2022-07-31T03:12:44.286Z,4.03
2022-07-31T03:15:12.587Z,4.38
2022-07-31T03:17:41.011Z,3.92
2022-07-31T03:20:08.589Z,4.22
2022-07-31T03:22:35.003Z,3.97
2022-07-31T03:25:02.526Z,3.80
2022-07-31T03:27:28.756Z,4.15
2022-07-31T03:29:55.074Z,3.65
2022-07-31T03:32:21.710Z,3.55
2022-07-31T03:34:48.036Z,3.80
2022-07-31T03:37:14.420Z,3.67
2022-07-31T03:39:40.967Z,4.00
2022-07-31T03:42:18.539Z,4.05
2022-07-31T03:44:46.357Z,3.80
2022-07-31T03:47:12.666Z,4.15
2022-07-31T03:49:39.641Z,3.80
2022-07-31T03:52:11.401Z,3.58
2022-07-31T03:54:38.446Z,3.67
2022-07-31T03:57:05.442Z,3.88
2022-07-31T03:59:39.892Z,4.03
2022-07-31T04:02:08.000Z,3.65
2022-07-31T04:04:37.473Z,3.50
2022-07-31T04:07:05.051Z,3.97
2022-07-31T04:09:31.652Z,3.70
2022-07-31T04:11:57.920Z,3.47
2022-07-31T04:14:24.224Z,3.60
2022-07-31T04:16:50.589Z,3.70
2022-07-31T04:19:16.874Z,3.58
2022-07-31T04:21:43.166Z,3.55
2022-07-31T04:24:11.413Z,3.70
2022-07-31T04:26:37.720Z,3.30
2022-07-31T04:29:04.576Z,3.17
2022-07-31T04:31:30.833Z,3.60
2022-07-31T04:33:57.310Z,3.65
2022-07-31T04:36:29.547Z,3.65
2022-07-31T04:38:57.122Z,3.75
2022-07-31T04:41:23.407Z,3.75
2022-07-31T04:43:49.692Z,2.95
2022-07-31T04:46:17.576Z,5.05
2022-07-31T04:48:44.292Z,3.25
2022-07-31T04:51:18.668Z,3.13
2022-07-31T04:53:45.800Z,3.13
2022-07-31T04:56:30.824Z,3.60
2022-07-31T04:58:57.117Z,3.10
2022-07-31T05:01:23.546Z,3.10
2022-07-31T05:03:50.191Z,3.20
2022-07-31T05:06:16.459Z,3.35
2022-07-31T05:08:43.744Z,4.22
2022-07-31T05:11:25.219Z,3.70
2022-07-31T05:13:52.730Z,3.97
2022-07-31T05:16:19.317Z,3.35
2022-07-31T05:18:45.789Z,3.25
2022-07-31T05:21:12.551Z,3.35
2022-07-31T05:23:39.478Z,3.50
2022-07-31T05:26:06.044Z,3.03
2022-07-31T05:28:32.569Z,2.80
2022-07-31T05:30:59.115Z,3.10
2022-07-31T05:33:25.475Z,2.83
2022-07-31T05:35:51.793Z,2.80
2022-07-31T05:38:18.081Z,2.72
2022-07-31T05:40:44.377Z,3.03
2022-07-31T05:43:10.873Z,2.70
2022-07-31T05:45:37.203Z,2.47
2022-07-31T05:48:03.628Z,2.70
2022-07-31T05:50:29.868Z,2.22
2022-07-31T05:52:56.181Z,2.33
2022-07-31T05:55:22.519Z,2.25
2022-07-31T05:57:48.978Z,2.92
2022-07-31T06:00:16.301Z,2.58
2022-07-31T06:02:43.898Z,2.60
2022-07-31T06:05:10.232Z,2.70
2022-07-31T06:07:36.530Z,2.22
2022-07-31T06:10:03.471Z,3.38
2022-07-31T06:12:29.843Z,3.00
2022-07-31T06:14:56.209Z,2.67
2022-07-31T06:17:22.557Z,2.25
2022-07-31T06:19:48.794Z,2.40
2022-07-31T06:22:15.085Z,2.90
2022-07-31T06:24:43.374Z,2.90
2022-07-31T06:27:20.805Z,2.53
2022-07-31T06:29:57.701Z,2.22
2022-07-31T06:32:24.329Z,2.25
2022-07-31T06:34:50.593Z,2.35
2022-07-31T06:37:16.841Z,2.58
2022-07-31T06:39:55.688Z,2.70
2022-07-31T06:42:23.464Z,2.40
2022-07-31T06:44:50.024Z,2.47
2022-07-31T06:47:16.830Z,2.33
2022-07-31T06:49:43.228Z,2.65
2022-07-31T06:52:09.883Z,2.50
2022-07-31T06:54:36.528Z,2.90
2022-07-31T06:57:03.337Z,2.65
2022-07-31T06:59:39.035Z,2.55
2022-07-31T07:02:07.750Z,2.67
2022-07-31T07:05:05.402Z,2.47
2022-07-31T07:07:20.641Z,2.60
2022-07-31T07:09:46.944Z,2.60
2022-07-31T07:12:16.922Z,3.00
2022-07-31T07:14:43.541Z,2.42
2022-07-31T07:17:09.849Z,2.92
2022-07-31T07:19:39.050Z,2.50
2022-07-31T07:22:05.721Z,2.53
2022-07-31T07:24:32.341Z,2.65
2022-07-31T07:26:58.666Z,3.03
2022-07-31T07:29:24.888Z,2.55
2022-07-31T07:31:51.382Z,2.78
2022-07-31T07:34:17.691Z,3.15
2022-07-31T07:36:43.975Z,2.97
2022-07-31T07:39:10.442Z,2.92
2022-07-31T07:41:38.439Z,2.80
2022-07-31T07:44:06.045Z,2.80
2022-07-31T07:46:32.381Z,2.83
2022-07-31T07:48:58.975Z,2.53
2022-07-31T07:51:25.261Z,3.15
2022-07-31T07:53:51.549Z,2.88
2022-07-31T07:56:17.952Z,2.47
2022-07-31T07:58:44.262Z,2.70
2022-07-31T08:01:10.642Z,3.03
2022-07-31T08:03:50.247Z,2.60
2022-07-31T08:06:19.038Z,2.47
2022-07-31T08:08:45.340Z,2.28
2022-07-31T08:11:16.927Z,2.15
2022-07-31T08:13:49.318Z,2.00
2022-07-31T08:16:16.286Z,2.10
2022-07-31T08:18:42.534Z,1.70
2022-07-31T08:21:08.813Z,2.05
2022-07-31T08:23:35.083Z,2.00
2022-07-31T08:26:01.708Z,1.67
2022-07-31T08:28:28.044Z,1.80
2022-07-31T08:30:54.854Z,1.58
2022-07-31T08:33:21.816Z,1.50
2022-07-31T08:35:50.571Z,1.60
2022-07-31T08:38:18.317Z,1.52
2022-07-31T08:40:44.884Z,1.70
2022-07-31T08:44:00.543Z,1.63
2022-07-31T08:45:59.835Z,1.55
2022-07-31T08:48:27.189Z,1.50
2022-07-31T08:50:54.075Z,1.40
2022-07-31T08:53:22.500Z,1.50
2022-07-31T08:55:56.764Z,1.35
2022-07-31T08:58:24.632Z,1.38
2022-07-31T09:00:51.313Z,1.38
2022-07-31T09:03:17.882Z,1.58
2022-07-31T09:05:44.126Z,1.52
2022-07-31T09:08:14.618Z,1.48
2022-07-31T09:10:46.386Z,1.45
2022-07-31T09:13:17.826Z,1.40
2022-07-31T09:15:44.346Z,1.50
2022-07-31T09:18:17.849Z,1.60
2022-07-31T09:20:53.544Z,1.48
2022-07-31T09:23:19.806Z,1.67
2022-07-31T09:26:01.848Z,1.67
2022-07-31T09:28:35.681Z,1.80
2022-07-31T09:31:02.424Z,1.67
2022-07-31T09:33:30.246Z,1.58
2022-07-31T09:35:57.153Z,1.60
2022-07-31T09:38:29.453Z,1.85
2022-07-31T09:40:57.768Z,1.70
2022-07-31T09:43:24.603Z,1.50
2022-07-31T09:45:59.624Z,1.50
2022-07-31T09:48:26.862Z,1.58
2022-07-31T09:50:59.506Z,1.73
2022-07-31T09:53:26.037Z,1.67
2022-07-31T09:55:53.142Z,1.85
2022-07-31T09:58:19.605Z,1.77
2022-07-31T10:00:56.357Z,1.80
2022-07-31T10:03:25.216Z,1.60
2022-07-31T10:05:51.653Z,1.50
2022-07-31T10:08:17.946Z,1.48
2022-07-31T10:10:46.125Z,1.60
2022-07-31T10:13:15.347Z,1.42
2022-07-31T10:15:42.429Z,1.55
2022-07-31T10:18:09.149Z,1.60
2022-07-31T10:20:36.627Z,1.95
2022-07-31T10:23:08.326Z,1.35
2022-07-31T10:25:35.572Z,1.05
2022-07-31T10:28:01.870Z,1.40
2022-07-31T10:30:28.925Z,1.50
2022-07-31T10:32:55.673Z,1.38
2022-07-31T10:35:22.595Z,1.63
2022-07-31T10:37:51.866Z,1.40
2022-07-31T10:40:27.709Z,1.10
2022-07-31T10:43:02.930Z,1.30
2022-07-31T10:45:32.325Z,1.52
2022-07-31T10:48:00.173Z,1.35
2022-07-31T10:50:27.301Z,1.45
2022-07-31T10:52:58.614Z,1.77
2022-07-31T10:55:27.034Z,1.33
2022-07-31T10:57:56.797Z,1.30
2022-07-31T11:00:28.176Z,1.50
2022-07-31T11:02:54.650Z,1.30
2022-07-31T11:05:25.849Z,1.40
2022-07-31T11:08:01.965Z,1.30
2022-07-31T11:10:28.388Z,1.10
2022-07-31T11:13:00.861Z,1.80
2022-07-31T11:15:27.203Z,1.40
2022-07-31T11:18:23.341Z,1.40
2022-07-31T11:20:40.593Z,1.50
2022-07-31T11:23:08.422Z,1.50
2022-07-31T11:25:36.264Z,1.33
2022-07-31T11:28:11.733Z,1.45
2022-07-31T11:30:51.279Z,1.42
2022-07-31T11:33:41.487Z,1.30
2022-07-31T11:36:10.095Z,1.52
2022-07-31T11:38:37.003Z,1.50
2022-07-31T11:41:05.745Z,1.50
2022-07-31T11:43:34.430Z,1.52
2022-07-31T11:46:01.131Z,1.70
2022-07-31T11:48:28.155Z,1.70
2022-07-31T11:50:54.630Z,1.60
2022-07-31T11:53:21.230Z,1.88
2022-07-31T11:55:48.694Z,1.50
2022-07-31T11:58:16.541Z,1.55
2022-07-31T12:00:46.779Z,1.55
2022-07-31T12:03:13.173Z,1.52
2022-07-31T12:05:49.105Z,1.58
2022-07-31T12:08:15.980Z,1.70
2022-07-31T12:10:42.848Z,1.52
2022-07-31T12:13:15.716Z,1.70
2022-07-31T12:15:53.662Z,1.88
2022-07-31T12:18:19.946Z,1.90
2022-07-31T12:21:02.516Z,1.70
2022-07-31T12:23:42.282Z,1.83
2022-07-31T12:26:10.755Z,1.75
2022-07-31T12:28:37.049Z,1.77
2022-07-31T12:31:03.499Z,1.98
2022-07-31T12:33:39.338Z,3.15
2022-07-31T12:36:11.743Z,1.83
2022-07-31T12:38:41.074Z,1.98
2022-07-31T12:41:12.610Z,1.70
2022-07-31T12:43:38.960Z,1.80
2022-07-31T12:46:16.381Z,1.90
2022-07-31T12:48:46.098Z,1.70
2022-07-31T12:51:13.075Z,2.03
2022-07-31T12:53:39.351Z,2.10
2022-07-31T12:56:10.438Z,2.20
2022-07-31T12:58:36.704Z,2.17
2022-07-31T13:01:02.993Z,1.92
2022-07-31T13:03:38.926Z,2.20
2022-07-31T13:06:12.695Z,2.28
2022-07-31T13:08:38.947Z,2.00
2022-07-31T13:11:05.223Z,2.20
2022-07-31T13:13:31.467Z,2.05
2022-07-31T13:15:57.721Z,2.15
2022-07-31T13:18:24.003Z,2.20
2022-07-31T13:20:50.304Z,2.20
2022-07-31T13:23:16.572Z,1.90
2022-07-31T13:25:42.834Z,2.30
2022-07-31T13:28:09.145Z,2.10
2022-07-31T13:30:35.436Z,2.13
2022-07-31T13:33:01.715Z,2.45
2022-07-31T13:35:29.192Z,2.40
2022-07-31T13:37:56.082Z,2.10
2022-07-31T13:40:41.231Z,2.35
2022-07-31T13:43:07.502Z,2.17
2022-07-31T13:45:34.453Z,2.17
2022-07-31T13:48:03.361Z,2.13
2022-07-31T13:50:33.373Z,2.10
2022-07-31T13:52:59.678Z,2.20
2022-07-31T13:55:26.022Z,2.05
2022-07-31T13:57:52.409Z,2.33
2022-07-31T14:00:21.609Z,2.25
2022-07-31T14:02:49.956Z,2.28
2022-07-31T14:05:16.554Z,2.10
2022-07-31T14:07:48.327Z,2.00
2022-07-31T14:12:47.131Z,2.03
2022-07-31T14:15:13.448Z,2.03
2022-07-31T14:17:39.750Z,2.00
2022-07-31T14:20:06.596Z,2.20
2022-07-31T14:22:32.881Z,2.20
2022-07-31T14:24:59.201Z,2.20
2022-07-31T14:27:25.526Z,2.20
2022-07-31T14:29:51.849Z,2.20
2022-07-31T14:32:19.162Z,2.00
2022-07-31T14:34:45.469Z,1.80
2022-07-31T14:37:11.727Z,1.83
2022-07-31T14:39:42.568Z,1.77
2022-07-31T14:42:09.399Z,2.05
2022-07-31T14:44:35.714Z,1.98
2022-07-31T14:47:02.158Z,2.20
2022-07-31T14:50:06.024Z,1.95
2022-07-31T14:52:15.037Z,2.38
2022-07-31T14:54:41.279Z,3.05
2022-07-31T14:57:07.520Z,2.25
2022-07-31T14:59:33.810Z,2.28
2022-07-31T15:02:00.374Z,2.13
2022-07-31T15:04:26.730Z,2.25
2022-07-31T15:07:07.816Z,2.13
2022-07-31T15:09:39.347Z,2.05
2022-07-31T15:12:05.877Z,2.10
2022-07-31T15:14:32.189Z,2.05
2022-07-31T15:16:58.501Z,2.00
2022-07-31T15:19:24.764Z,2.00
2022-07-31T15:22:10.283Z,2.50
2022-07-31T15:24:39.240Z,2.15
2022-07-31T15:27:08.692Z,2.08
2022-07-31T15:30:04.866Z,2.30
2022-07-31T15:32:21.198Z,2.05
2022-07-31T15:34:47.523Z,2.30
2022-07-31T15:37:20.130Z,2.85
2022-07-31T15:40:02.638Z,2.58
2022-07-31T15:42:30.294Z,2.70
2022-07-31T15:44:56.574Z,2.53
2022-07-31T15:47:22.875Z,2.25
2022-07-31T15:49:49.180Z,2.45
2022-07-31T15:52:18.906Z,2.42
2022-07-31T15:54:45.989Z,2.42
2022-07-31T15:57:12.278Z,2.33
2022-07-31T15:59:38.531Z,2.70
2022-07-31T16:02:06.394Z,2.63
2022-07-31T16:04:32.854Z,2.80
2022-07-31T16:07:00.353Z,2.72
2022-07-31T16:10:02.501Z,2.75
2022-07-31T16:12:33.714Z,2.33
2022-07-31T16:15:00.089Z,2.65
2022-07-31T16:17:37.619Z,2.38
2022-07-31T16:20:05.597Z,2.25
2022-07-31T16:22:31.914Z,2.42
2022-07-31T16:24:58.172Z,2.70
2022-07-31T16:27:24.445Z,2.83
2022-07-31T16:29:59.694Z,2.58
2022-07-31T16:32:28.553Z,2.30
2022-07-31T16:34:58.455Z,2.70
2022-07-31T16:37:50.529Z,2.83
2022-07-31T16:40:26.963Z,2.60
2022-07-31T16:42:56.139Z,2.40
2022-07-31T16:45:22.565Z,2.40
2022-07-31T16:47:51.806Z,2.40
2022-07-31T16:50:18.537Z,2.88
2022-07-31T16:52:44.781Z,2.72
2022-07-31T16:55:11.029Z,2.65
2022-07-31T16:57:37.266Z,2.22
2022-07-31T17:00:04.672Z,2.50
2022-07-31T17:02:30.903Z,2.67
2022-07-31T17:04:57.231Z,2.53
2022-07-31T17:07:23.672Z,1.83
2022-07-31T17:09:49.998Z,2.20
2022-07-31T17:12:17.608Z,2.00
2022-07-31T17:14:43.915Z,2.70
2022-07-31T17:17:11.362Z,2.10
2022-07-31T17:19:45.453Z,2.05
2022-07-31T17:22:18.093Z,2.03
2022-07-31T17:24:50.091Z,1.63
2022-07-31T17:27:16.538Z,2.17
2022-07-31T17:29:42.901Z,2.58
2022-07-31T17:32:11.374Z,2.08
2022-07-31T17:34:37.878Z,2.28
2022-07-31T17:37:04.785Z,1.55
2022-07-31T17:39:31.406Z,1.90
2022-07-31T17:41:58.024Z,2.00
2022-07-31T17:44:24.300Z,2.08
2022-07-31T17:46:50.578Z,1.70
2022-07-31T17:49:19.451Z,2.10
2022-07-31T17:51:58.739Z,2.13
2022-07-31T17:54:27.825Z,1.70
2022-07-31T17:56:54.204Z,1.83
2022-07-31T17:59:20.524Z,1.85
2022-07-31T18:01:51.751Z,1.60
2022-07-31T18:04:18.940Z,1.73
2022-07-31T18:06:45.208Z,1.50
2022-07-31T18:09:11.446Z,1.42
2022-07-31T18:11:37.743Z,1.50
2022-07-31T18:14:04.974Z,1.40
2022-07-31T18:16:31.508Z,1.60
2022-07-31T18:18:57.774Z,1.50
2022-07-31T18:21:24.077Z,1.40
2022-07-31T18:23:50.362Z,1.35
2022-07-31T18:26:16.671Z,1.40
2022-07-31T18:28:42.942Z,1.38
2022-07-31T18:31:31.494Z,1.15
2022-07-31T18:33:55.534Z,1.38
2022-07-31T18:36:23.015Z,1.52
2022-07-31T18:38:50.050Z,1.70
2022-07-31T18:41:16.303Z,1.35
2022-07-31T18:43:42.594Z,1.60
2022-07-31T18:46:08.846Z,1.30
2022-07-31T18:48:35.169Z,1.60
2022-07-31T18:51:04.760Z,1.40
2022-07-31T18:53:31.850Z,1.88
2022-07-31T18:55:58.181Z,1.13
2022-07-31T18:58:24.536Z,1.60
2022-07-31T19:00:54.924Z,1.70
2022-07-31T19:03:21.761Z,1.70
2022-07-31T19:05:49.948Z,1.50
2022-07-31T19:08:16.225Z,1.60
2022-07-31T19:10:42.518Z,1.27
2022-07-31T19:13:08.757Z,1.60
2022-07-31T19:15:45.577Z,1.27
2022-07-31T19:18:11.842Z,1.40
2022-07-31T19:20:58.864Z,1.15
2022-07-31T19:23:26.589Z,1.10
2022-07-31T19:26:02.488Z,1.30
2022-07-31T19:28:31.140Z,1.40
2022-07-31T19:30:57.381Z,1.50
2022-07-31T19:33:23.641Z,1.65
2022-07-31T19:35:58.313Z,1.70
2022-07-31T19:38:25.067Z,1.60
2022-07-31T19:40:51.294Z,1.42
2022-07-31T19:43:17.600Z,1.30
2022-07-31T19:46:10.225Z,1.20
2022-07-31T19:48:32.991Z,1.55
2022-07-31T19:50:59.264Z,1.42
2022-07-31T19:53:25.539Z,1.52
2022-07-31T19:55:51.870Z,1.80
2022-07-31T19:58:18.311Z,1.45
2022-07-31T20:00:44.847Z,1.42
2022-07-31T20:03:11.393Z,1.65
2022-07-31T20:05:37.877Z,1.30
2022-07-31T20:08:04.233Z,1.35
2022-07-31T20:10:30.473Z,1.55
2022-07-31T20:12:56.755Z,1.67
2022-07-31T20:15:23.189Z,1.50
2022-07-31T20:17:49.555Z,1.40
2022-07-31T20:20:16.376Z,1.40
2022-07-31T20:22:42.982Z,1.52
2022-07-31T20:25:12.078Z,1.58
2022-07-31T20:27:45.822Z,1.40
2022-07-31T20:30:12.269Z,1.27
2022-07-31T20:32:38.700Z,1.25
2022-07-31T20:35:47.189Z,1.30
2022-07-31T20:38:01.228Z,1.38
2022-07-31T20:40:28.776Z,1.40
2022-07-31T20:42:55.211Z,1.45
2022-07-31T20:45:21.682Z,1.90
2022-07-31T20:47:48.064Z,2.05
2022-07-31T20:50:14.325Z,2.30
2022-07-31T20:52:40.737Z,2.40
2022-07-31T20:55:07.155Z,2.00
2022-07-31T20:57:33.611Z,1.88
2022-07-31T20:59:59.850Z,2.20
2022-07-31T21:02:26.483Z,2.30
2022-07-31T21:04:52.793Z,2.25
2022-07-31T21:07:19.099Z,3.20
2022-07-31T21:09:45.504Z,3.10
2022-07-31T21:12:11.792Z,3.17
2022-07-31T21:14:38.073Z,3.20
2022-07-31T21:17:04.375Z,3.10
2022-07-31T21:19:30.648Z,2.78
2022-07-31T21:21:57.168Z,2.67
2022-07-31T21:24:23.535Z,2.80
2022-07-31T21:26:53.233Z,2.90
2022-07-31T21:29:24.468Z,3.90
2022-07-31T21:31:51.116Z,3.78
2022-07-31T21:34:17.650Z,3.80
2022-07-31T21:36:44.253Z,3.67
2022-07-31T21:39:18.573Z,3.80
2022-07-31T21:41:45.530Z,3.92
2022-07-31T21:44:12.725Z,3.33
2022-07-31T21:46:43.174Z,4.30
2022-07-31T21:49:13.625Z,3.67
2022-07-31T21:51:40.329Z,3.92
2022-07-31T21:54:06.723Z,4.07
2022-07-31T21:56:33.261Z,4.03
2022-07-31T21:58:59.530Z,3.28
2022-07-31T22:01:26.034Z,3.53
2022-07-31T22:03:52.340Z,3.53
2022-07-31T22:06:37.161Z,3.40
2022-07-31T22:09:03.468Z,4.22
2022-07-31T22:11:30.421Z,4.47
2022-07-31T22:13:56.702Z,4.00
2022-07-31T22:16:22.980Z,3.78
2022-07-31T22:18:49.982Z,4.13
2022-07-31T22:21:16.449Z,3.78
2022-07-31T22:23:42.761Z,3.80
2022-07-31T22:26:09.500Z,3.85
2022-07-31T22:28:35.853Z,3.63
2022-07-31T22:31:02.308Z,3.40
2022-07-31T22:33:28.643Z,3.65
2022-07-31T22:35:59.889Z,3.58
2022-07-31T22:38:27.815Z,3.22
2022-07-31T22:40:54.142Z,2.40
2022-07-31T22:44:11.175Z,1.85
2022-07-31T22:46:07.150Z,1.88
2022-07-31T22:48:33.433Z,2.10
2022-07-31T22:51:01.529Z,1.98
2022-07-31T22:53:27.855Z,1.58
2022-07-31T22:55:54.140Z,1.50
2022-07-31T22:58:20.546Z,1.60
2022-07-31T23:00:47.366Z,1.50
2022-07-31T23:03:13.623Z,1.65
2022-07-31T23:06:02.492Z,1.60
2022-07-31T23:08:26.357Z,1.52
2022-07-31T23:10:52.622Z,1.58
2022-07-31T23:13:18.873Z,1.45
2022-07-31T23:15:45.200Z,1.60
2022-07-31T23:18:11.847Z,1.50
2022-07-31T23:20:38.237Z,1.60
2022-07-31T23:23:04.553Z,1.35
2022-07-31T23:25:30.824Z,1.60
2022-07-31T23:27:57.277Z,1.65
2022-07-31T23:30:27.371Z,1.77
2022-07-31T23:32:55.158Z,1.80
2022-07-31T23:35:21.381Z,1.65
2022-07-31T23:37:47.761Z,1.85
2022-07-31T23:40:14.071Z,1.70
2022-07-31T23:42:40.332Z,2.15
2022-07-31T23:45:07.884Z,1.50
2022-07-31T23:47:45.482Z,1.75
2022-07-31T23:50:13.089Z,1.85
2022-07-31T23:52:39.361Z,1.75
2022-07-31T23:55:05.916Z,1.63
2022-07-31T23:57:34.165Z,1.67
